Time;durP1;ratioP1;P1;durP2;ratioP2;P2;SDS_P1;SDS_P2;PMS_P1;PMS_P2;Temp;Humidity;BMP_temperature;BMP_pressure;BME280_temperature;BME280_humidity;BME280_pressure;Samples;Min_cycle;Max_cycle;Signal;HPM_P1;HPM_P2
2022/02/02 00:02:32;;;;;;;;;;;3.90;99.90;;;;;;20809308;28;20018;-80
2022/02/02 00:12:46;;;;;;;3.08;2.13;;;4.00;99.90;;;;;;20821891;23;19924;-77
2022/02/02 00:22:50;;;;;;;2.60;1.80;;;4.10;99.90;;;;;;20831593;28;20041;-77
2022/02/02 00:33:11;;;;;;;2.78;1.90;;;4.20;99.90;;;;;;20831414;28;20033;-78
2022/02/02 00:43:12;;;;;;;2.03;1.60;;;4.20;99.90;;;;;;20832625;28;20053;-78
2022/02/02 00:53:14;;;;;;;6.63;1.00;;;4.30;99.90;;;;;;20828763;28;20040;-77
2022/02/02 01:03:15;;;;;;;1.45;0.80;;;4.50;99.90;;;;;;20832293;28;20034;-78
2022/02/02 01:33:23;;;;;;;2.55;1.63;;;4.90;99.90;;;;;;20827318;28;19980;-77
2022/02/02 01:43:38;;;;;;;3.10;1.80;;;5.10;99.90;;;;;;20825767;28;20033;-78
2022/02/02 02:03:40;;;;;;;3.83;2.03;;;5.30;99.90;;;;;;20825203;28;20041;-77
2022/02/02 02:14:21;;;;;;;5.47;2.40;;;5.50;99.90;;;;;;20837395;28;20029;-77
2022/02/02 02:24:11;;;;;;;2.40;1.90;;;5.60;99.90;;;;;;20840920;28;20071;-77
2022/02/02 04:07:08;;;;;;;3.85;2.42;;;5.80;99.90;;;;;;20833038;28;20037;-77
2022/02/02 04:37:57;;;;;;;5.38;2.97;;;5.90;99.90;;;;;;20831144;28;20041;-78
2022/02/02 05:08:37;;;;;;;3.50;2.40;;;5.90;99.90;;;;;;20835036;28;20037;-77
2022/02/02 05:50:01;;;;;;;2.97;1.92;;;6.00;99.90;;;;;;20829023;28;20088;-78
2022/02/02 06:00:02;;;;;;;3.30;2.17;;;6.00;99.90;;;;;;20830131;28;20415;-78
2022/02/02 06:10:06;;;;;;;2.28;1.63;;;6.00;99.90;;;;;;20836783;22;20040;-75
2022/02/02 06:20:07;;;;;;;4.80;1.88;;;6.00;99.90;;;;;;20889382;23;20052;-78
2022/02/02 06:30:09;;;;;;;4.35;2.28;;;6.00;99.90;;;;;;20906248;28;20025;-78
2022/02/02 06:40:12;;;;;;;4.55;2.33;;;6.00;99.90;;;;;;20896856;28;20364;-77
2022/02/02 06:50:30;;;;;;;4.22;2.53;;;5.90;99.90;;;;;;20901058;28;20037;-78
2022/02/02 07:00:52;;;;;;;4.70;2.60;;;5.90;99.90;;;;;;20920297;28;20068;-77
2022/02/02 07:41:35;;;;;;;7.75;3.97;;;6.10;99.90;;;;;;20909885;28;20025;-77
2022/02/02 07:51:37;;;;;;;8.07;4.65;;;6.10;99.90;;;;;;20885726;28;20032;-77
2022/02/02 08:01:38;;;;;;;7.57;4.70;;;6.10;99.90;;;;;;20903256;28;20033;-78
2022/02/02 08:11:39;;;;;;;9.32;4.25;;;6.20;99.90;;;;;;20897241;28;20025;-76
2022/02/02 08:21:40;;;;;;;8.73;3.58;;;6.30;99.90;;;;;;20888656;28;20127;-77
2022/02/02 08:31:41;;;;;;;6.83;3.50;;;6.40;99.90;;;;;;20892907;28;20056;-77
2022/02/02 08:41:48;;;;;;;;;;;6.50;99.90;;;;;;20904204;28;20025;-77
2022/02/02 08:51:49;;;;;;;11.90;4.82;;;6.50;99.90;;;;;;20922981;28;19912;-77
2022/02/02 09:01:51;;;;;;;7.63;3.78;;;6.50;99.90;;;;;;20912334;28;20498;-78
2022/02/02 09:32:49;;;;;;;7.00;3.08;;;6.50;99.90;;;;;;20957571;28;20036;-78
2022/02/02 09:42:55;;;;;;;;;;;6.60;99.90;;;;;;20839608;28;20035;-78
2022/02/02 09:53:00;;;;;;;12.38;3.45;;;6.60;99.90;;;;;;20887218;28;19912;-77
2022/02/02 10:23:28;;;;;;;14.50;5.40;;;6.90;99.90;;;;;;20808641;28;20132;-76
2022/02/02 10:33:30;;;;;;;7.57;5.15;;;6.90;99.90;;;;;;20895039;28;20033;-77
2022/02/02 10:43:53;;;;;;;8.48;4.18;;;7.00;99.90;;;;;;20883917;28;20040;-77
2022/02/02 10:54:17;;;;;;;6.97;3.30;;;7.00;99.90;;;;;;20882227;28;20128;-77
2022/02/02 11:14:57;;;;;;;4.57;2.28;;;7.10;99.90;;;;;;20971154;28;20040;-77
2022/02/02 11:25:04;;;;;;;4.82;2.60;;;7.20;99.90;;;;;;20810614;28;20037;-77
2022/02/02 11:45:45;;;;;;;2.60;1.90;;;7.30;99.90;;;;;;20896380;28;20111;-77
2022/02/02 11:55:48;;;;;;;2.22;1.73;;;7.30;99.90;;;;;;20901057;28;20397;-78
2022/02/02 12:06:04;;;;;;;4.88;2.88;;;7.30;99.90;;;;;;20895953;28;20061;-77
2022/02/02 12:56:41;;;;;;;8.77;5.15;;;7.30;99.90;;;;;;21089627;28;20459;-78
2022/02/02 13:06:42;;;;;;;9.10;4.22;;;7.10;99.90;;;;;;21089903;28;20032;-79
2022/02/02 13:16:43;;;;;;;8.25;4.30;;;7.20;99.90;;;;;;21085588;28;20123;-78
2022/02/02 13:26:53;;;;;;;7.90;4.20;;;7.30;99.90;;;;;;21071554;28;20445;-76
2022/02/02 14:39:44;;;;;;;6.55;3.70;;;7.60;99.90;;;;;;21008596;28;20094;-77
2022/02/02 15:30:53;;;;;;;4.68;2.22;;;7.50;99.90;;;;;;21014376;28;20086;-79
2022/02/02 15:41:02;;;;;;;4.40;2.10;;;7.50;99.90;;;;;;21014072;28;20119;-77
2022/02/02 16:11:43;;;;;;;1.23;0.90;;;7.60;99.90;;;;;;21015914;28;20039;-79
2022/02/02 16:52:43;;;;;;;0.85;0.80;;;7.40;99.90;;;;;;21062417;28;20032;-79
2022/02/02 17:33:53;;;;;;;3.97;3.10;;;7.50;99.90;;;;;;21005134;28;20100;-79
2022/02/02 18:25:11;;;;;;;5.70;3.72;;;7.40;99.90;;;;;;20984446;28;20397;-80
2022/02/02 18:35:17;;;;;;;4.40;3.05;;;7.40;99.90;;;;;;21000919;28;20037;-77
2022/02/02 18:45:40;;;;;;;4.38;2.63;;;7.40;99.90;;;;;;20919426;28;20025;-78
2022/02/02 20:07:45;;;;;;;8.88;4.85;;;7.30;99.90;;;;;;20927844;28;20088;-78
2022/02/02 20:17:46;;;;;;;8.57;5.43;;;7.40;99.90;;;;;;20918275;28;20048;-78
2022/02/02 20:27:54;;;;;;;17.52;7.47;;;7.40;99.90;;;;;;20919472;28;20037;-79
2022/02/02 20:37:55;;;;;;;17.63;7.28;;;7.30;99.90;;;;;;20906250;28;20075;-78
2022/02/02 21:18:59;;;;;;;20.10;11.10;;;7.10;99.90;;;;;;20907198;28;20025;-77
2022/02/02 21:29:00;;;;;;;373.13;29.05;;;7.20;99.90;;;;;;20914143;28;20033;-78
2022/02/02 21:39:06;;;;;;;21.13;10.55;;;7.10;99.90;;;;;;20895016;28;20104;-77
2022/02/02 21:49:09;;;;;;;19.23;9.73;;;7.10;99.90;;;;;;20888802;28;20582;-77
2022/02/02 21:59:10;;;;;;;24.00;11.18;;;7.20;99.90;;;;;;20959296;28;20044;-77
2022/02/02 22:09:11;;;;;;;25.87;12.17;;;7.10;99.90;;;;;;20924785;28;20087;-77
2022/02/02 22:19:12;;;;;;;26.37;11.70;;;7.10;99.90;;;;;;20890140;28;20087;-77
2022/02/02 22:29:13;;;;;;;22.83;11.43;;;7.20;99.90;;;;;;20903421;28;20491;-78
2022/02/02 22:39:13;;;;;;;25.43;11.13;;;7.10;99.90;;;;;;20907436;28;20029;-77
2022/02/02 22:49:14;;;;;;;23.73;12.90;;;7.20;99.90;;;;;;20920852;28;20040;-77
2022/02/02 22:59:21;;;;;;;27.10;13.83;;;7.20;99.90;;;;;;20970670;28;20065;-77
2022/02/02 23:09:22;;;;;;;26.90;14.18;;;7.20;99.90;;;;;;20986601;28;20029;-78
2022/02/02 23:19:22;;;;;;;33.77;12.23;;;7.20;99.90;;;;;;20952690;28;20056;-78
2022/02/02 23:29:28;;;;;;;23.97;12.87;;;7.20;99.90;;;;;;20907356;28;20028;-78
2022/02/02 23:39:29;;;;;;;26.73;13.73;;;7.20;99.90;;;;;;20913655;28;20040;-78
2022/02/02 23:49:39;;;;;;;23.55;11.95;;;7.20;99.90;;;;;;20923317;28;20033;-78
